sensor_id;sensor_type;location;lat;lon;timestamp;P1;durP1;ratioP1;P2;durP2;ratioP2
56726;SDS011;42609;52.700;6.236;2023-04-25T00:02:13;17.25;;;3.78;;
56726;SDS011;42609;52.700;6.236;2023-04-25T00:04:39;16.65;;;4.13;;
56726;SDS011;42609;52.700;6.236;2023-04-25T00:07:04;14.63;;;3.60;;
56726;SDS011;42609;52.700;6.236;2023-04-25T00:09:30;18.52;;;4.40;;
56726;SDS011;42609;52.700;6.236;2023-04-25T00:11:57;16.83;;;3.80;;
56726;SDS011;42609;52.700;6.236;2023-04-25T00:14:22;14.77;;;3.95;;
56726;SDS011;42609;52.700;6.236;2023-04-25T00:16:48;18.25;;;4.20;;
56726;SDS011;42609;52.700;6.236;2023-04-25T00:19:13;15.70;;;4.00;;
56726;SDS011;42609;52.700;6.236;2023-04-25T00:21:39;15.52;;;3.55;;
56726;SDS011;42609;52.700;6.236;2023-04-25T00:24:11;15.93;;;3.97;;
56726;SDS011;42609;52.700;6.236;2023-04-25T00:26:37;21.20;;;4.30;;
56726;SDS011;42609;52.700;6.236;2023-04-25T00:29:03;14.35;;;4.13;;
56726;SDS011;42609;52.700;6.236;2023-04-25T00:31:29;16.38;;;3.90;;
56726;SDS011;42609;52.700;6.236;2023-04-25T00:33:55;11.05;;;3.53;;
56726;SDS011;42609;52.700;6.236;2023-04-25T00:36:21;17.08;;;3.47;;
56726;SDS011;42609;52.700;6.236;2023-04-25T00:38:46;17.10;;;3.67;;
56726;SDS011;42609;52.700;6.236;2023-04-25T00:41:12;17.40;;;3.75;;
56726;SDS011;42609;52.700;6.236;2023-04-25T00:43:38;17.23;;;3.03;;
56726;SDS011;42609;52.700;6.236;2023-04-25T00:46:05;13.38;;;3.30;;
56726;SDS011;42609;52.700;6.236;2023-04-25T00:48:31;15.45;;;3.65;;
56726;SDS011;42609;52.700;6.236;2023-04-25T00:50:57;13.40;;;3.58;;
56726;SDS011;42609;52.700;6.236;2023-04-25T00:53:24;12.93;;;3.05;;
56726;SDS011;42609;52.700;6.236;2023-04-25T00:55:52;14.30;;;3.20;;
56726;SDS011;42609;52.700;6.236;2023-04-25T00:58:22;18.40;;;4.13;;
56726;SDS011;42609;52.700;6.236;2023-04-25T01:00:48;15.18;;;3.25;;
56726;SDS011;42609;52.700;6.236;2023-04-25T01:03:15;15.00;;;3.35;;
56726;SDS011;42609;52.700;6.236;2023-04-25T01:05:42;16.13;;;3.58;;
56726;SDS011;42609;52.700;6.236;2023-04-25T01:08:08;12.07;;;3.47;;
56726;SDS011;42609;52.700;6.236;2023-04-25T01:10:35;14.82;;;3.30;;
56726;SDS011;42609;52.700;6.236;2023-04-25T01:13:01;16.38;;;4.15;;
56726;SDS011;42609;52.700;6.236;2023-04-25T01:15:27;19.38;;;3.58;;
56726;SDS011;42609;52.700;6.236;2023-04-25T01:17:56;15.85;;;3.75;;
56726;SDS011;42609;52.700;6.236;2023-04-25T01:20:23;17.45;;;3.60;;
56726;SDS011;42609;52.700;6.236;2023-04-25T01:22:50;14.63;;;3.97;;
56726;SDS011;42609;52.700;6.236;2023-04-25T01:25:18;19.15;;;3.60;;
56726;SDS011;42609;52.700;6.236;2023-04-25T01:27:44;14.93;;;3.33;;
56726;SDS011;42609;52.700;6.236;2023-04-25T01:30:10;16.27;;;3.65;;
56726;SDS011;42609;52.700;6.236;2023-04-25T01:32:36;17.40;;;4.10;;
56726;SDS011;42609;52.700;6.236;2023-04-25T01:35:08;15.13;;;4.18;;
56726;SDS011;42609;52.700;6.236;2023-04-25T01:37:36;14.10;;;3.50;;
56726;SDS011;42609;52.700;6.236;2023-04-25T01:40:06;11.07;;;3.10;;
56726;SDS011;42609;52.700;6.236;2023-04-25T01:42:33;14.30;;;3.65;;
56726;SDS011;42609;52.700;6.236;2023-04-25T01:45:00;10.48;;;3.10;;
56726;SDS011;42609;52.700;6.236;2023-04-25T01:47:26;16.88;;;3.60;;
56726;SDS011;42609;52.700;6.236;2023-04-25T01:49:52;13.93;;;3.25;;
56726;SDS011;42609;52.700;6.236;2023-04-25T01:52:18;14.02;;;3.40;;
56726;SDS011;42609;52.700;6.236;2023-04-25T01:54:43;19.08;;;3.95;;
56726;SDS011;42609;52.700;6.236;2023-04-25T01:57:12;10.88;;;2.85;;
56726;SDS011;42609;52.700;6.236;2023-04-25T01:59:38;11.75;;;3.08;;
56726;SDS011;42609;52.700;6.236;2023-04-25T02:02:04;16.10;;;3.95;;
56726;SDS011;42609;52.700;6.236;2023-04-25T02:04:30;16.00;;;3.10;;
56726;SDS011;42609;52.700;6.236;2023-04-25T02:06:56;16.73;;;3.25;;
56726;SDS011;42609;52.700;6.236;2023-04-25T02:09:21;15.50;;;3.38;;
56726;SDS011;42609;52.700;6.236;2023-04-25T02:11:48;14.63;;;3.45;;
56726;SDS011;42609;52.700;6.236;2023-04-25T02:14:13;14.65;;;4.13;;
56726;SDS011;42609;52.700;6.236;2023-04-25T02:16:39;12.23;;;3.45;;
56726;SDS011;42609;52.700;6.236;2023-04-25T02:19:08;13.85;;;3.50;;
56726;SDS011;42609;52.700;6.236;2023-04-25T02:21:34;15.10;;;3.38;;
56726;SDS011;42609;52.700;6.236;2023-04-25T02:24:00;13.18;;;3.38;;
56726;SDS011;42609;52.700;6.236;2023-04-25T02:26:26;10.75;;;3.42;;
56726;SDS011;42609;52.700;6.236;2023-04-25T02:28:52;13.10;;;3.60;;
56726;SDS011;42609;52.700;6.236;2023-04-25T02:31:18;14.40;;;3.13;;
56726;SDS011;42609;52.700;6.236;2023-04-25T02:33:43;14.65;;;3.30;;
56726;SDS011;42609;52.700;6.236;2023-04-25T02:36:09;13.40;;;3.10;;
56726;SDS011;42609;52.700;6.236;2023-04-25T02:38:38;14.77;;;2.95;;
56726;SDS011;42609;52.700;6.236;2023-04-25T02:41:04;14.82;;;2.75;;
56726;SDS011;42609;52.700;6.236;2023-04-25T02:43:29;12.48;;;2.78;;
56726;SDS011;42609;52.700;6.236;2023-04-25T02:45:55;10.55;;;2.80;;
56726;SDS011;42609;52.700;6.236;2023-04-25T02:48:21;12.88;;;3.03;;
56726;SDS011;42609;52.700;6.236;2023-04-25T02:50:46;9.02;;;2.40;;
56726;SDS011;42609;52.700;6.236;2023-04-25T02:53:12;13.43;;;2.40;;
56726;SDS011;42609;52.700;6.236;2023-04-25T02:55:37;10.82;;;2.63;;
56726;SDS011;42609;52.700;6.236;2023-04-25T02:58:03;11.68;;;2.72;;
56726;SDS011;42609;52.700;6.236;2023-04-25T03:00:29;12.30;;;3.05;;
56726;SDS011;42609;52.700;6.236;2023-04-25T03:02:55;13.65;;;2.70;;
56726;SDS011;42609;52.700;6.236;2023-04-25T03:05:21;11.80;;;2.95;;
56726;SDS011;42609;52.700;6.236;2023-04-25T03:07:46;13.30;;;3.15;;
56726;SDS011;42609;52.700;6.236;2023-04-25T03:10:12;13.43;;;3.28;;
56726;SDS011;42609;52.700;6.236;2023-04-25T03:12:37;11.27;;;2.88;;
56726;SDS011;42609;52.700;6.236;2023-04-25T03:15:06;12.77;;;2.80;;
56726;SDS011;42609;52.700;6.236;2023-04-25T03:17:32;11.63;;;2.80;;
56726;SDS011;42609;52.700;6.236;2023-04-25T03:19:58;10.52;;;2.60;;
56726;SDS011;42609;52.700;6.236;2023-04-25T03:22:23;15.13;;;3.08;;
56726;SDS011;42609;52.700;6.236;2023-04-25T03:24:49;14.75;;;2.22;;
56726;SDS011;42609;52.700;6.236;2023-04-25T03:27:15;10.75;;;2.28;;
56726;SDS011;42609;52.700;6.236;2023-04-25T03:29:41;14.35;;;2.47;;
56726;SDS011;42609;52.700;6.236;2023-04-25T03:32:07;10.70;;;2.10;;
56726;SDS011;42609;52.700;6.236;2023-04-25T03:34:33;11.40;;;2.50;;
56726;SDS011;42609;52.700;6.236;2023-04-25T03:37:01;13.23;;;2.50;;
56726;SDS011;42609;52.700;6.236;2023-04-25T03:39:26;9.02;;;1.88;;
56726;SDS011;42609;52.700;6.236;2023-04-25T03:41:52;8.15;;;2.00;;
56726;SDS011;42609;52.700;6.236;2023-04-25T03:44:17;15.05;;;2.60;;
56726;SDS011;42609;52.700;6.236;2023-04-25T03:46:43;10.73;;;1.80;;
56726;SDS011;42609;52.700;6.236;2023-04-25T03:49:09;11.57;;;2.45;;
56726;SDS011;42609;52.700;6.236;2023-04-25T03:51:34;10.05;;;1.80;;
56726;SDS011;42609;52.700;6.236;2023-04-25T03:54:00;10.30;;;1.95;;
56726;SDS011;42609;52.700;6.236;2023-04-25T03:56:26;10.23;;;2.15;;
56726;SDS011;42609;52.700;6.236;2023-04-25T03:58:51;7.95;;;1.98;;
56726;SDS011;42609;52.700;6.236;2023-04-25T04:01:17;12.35;;;2.17;;
56726;SDS011;42609;52.700;6.236;2023-04-25T04:03:42;8.20;;;1.80;;
56726;SDS011;42609;52.700;6.236;2023-04-25T04:06:08;11.27;;;2.03;;
56726;SDS011;42609;52.700;6.236;2023-04-25T04:08:34;8.13;;;1.70;;
56726;SDS011;42609;52.700;6.236;2023-04-25T04:11:00;7.93;;;2.17;;
56726;SDS011;42609;52.700;6.236;2023-04-25T04:13:26;7.88;;;1.60;;
56726;SDS011;42609;52.700;6.236;2023-04-25T04:15:52;7.53;;;1.60;;
56726;SDS011;42609;52.700;6.236;2023-04-25T04:18:18;8.15;;;1.70;;
56726;SDS011;42609;52.700;6.236;2023-04-25T04:20:44;10.07;;;2.00;;
56726;SDS011;42609;52.700;6.236;2023-04-25T04:23:09;8.25;;;2.17;;
56726;SDS011;42609;52.700;6.236;2023-04-25T04:25:35;8.40;;;2.30;;
56726;SDS011;42609;52.700;6.236;2023-04-25T04:28:05;9.63;;;2.13;;
56726;SDS011;42609;52.700;6.236;2023-04-25T04:30:31;9.43;;;2.20;;
56726;SDS011;42609;52.700;6.236;2023-04-25T04:32:58;7.38;;;1.70;;
56726;SDS011;42609;52.700;6.236;2023-04-25T04:35:25;7.97;;;1.88;;
56726;SDS011;42609;52.700;6.236;2023-04-25T04:37:51;10.75;;;2.95;;
56726;SDS011;42609;52.700;6.236;2023-04-25T04:40:17;7.88;;;2.00;;
56726;SDS011;42609;52.700;6.236;2023-04-25T04:42:43;10.10;;;1.85;;
56726;SDS011;42609;52.700;6.236;2023-04-25T04:45:10;8.48;;;1.95;;
56726;SDS011;42609;52.700;6.236;2023-04-25T04:47:37;9.95;;;2.33;;
56726;SDS011;42609;52.700;6.236;2023-04-25T04:50:04;11.45;;;2.33;;
56726;SDS011;42609;52.700;6.236;2023-04-25T04:52:34;11.80;;;2.28;;
56726;SDS011;42609;52.700;6.236;2023-04-25T04:55:00;8.27;;;2.10;;
56726;SDS011;42609;52.700;6.236;2023-04-25T04:57:27;9.38;;;1.70;;
56726;SDS011;42609;52.700;6.236;2023-04-25T04:59:53;11.73;;;2.03;;
56726;SDS011;42609;52.700;6.236;2023-04-25T05:02:18;9.27;;;1.92;;
56726;SDS011;42609;52.700;6.236;2023-04-25T05:04:44;7.97;;;2.22;;
56726;SDS011;42609;52.700;6.236;2023-04-25T05:07:10;7.35;;;2.05;;
56726;SDS011;42609;52.700;6.236;2023-04-25T05:09:36;10.20;;;2.03;;
56726;SDS011;42609;52.700;6.236;2023-04-25T05:12:02;8.25;;;2.00;;
56726;SDS011;42609;52.700;6.236;2023-04-25T05:14:27;7.60;;;2.15;;
56726;SDS011;42609;52.700;6.236;2023-04-25T05:16:53;8.20;;;1.70;;
56726;SDS011;42609;52.700;6.236;2023-04-25T05:19:19;9.88;;;2.15;;
56726;SDS011;42609;52.700;6.236;2023-04-25T05:21:44;8.23;;;1.70;;
56726;SDS011;42609;52.700;6.236;2023-04-25T05:24:10;9.13;;;1.77;;
56726;SDS011;42609;52.700;6.236;2023-04-25T05:26:36;8.85;;;1.80;;
56726;SDS011;42609;52.700;6.236;2023-04-25T05:29:02;6.05;;;1.55;;
56726;SDS011;42609;52.700;6.236;2023-04-25T05:31:28;7.32;;;1.60;;
56726;SDS011;42609;52.700;6.236;2023-04-25T05:33:53;6.93;;;1.75;;
56726;SDS011;42609;52.700;6.236;2023-04-25T05:36:19;8.43;;;1.90;;
56726;SDS011;42609;52.700;6.236;2023-04-25T05:38:45;7.50;;;1.48;;
56726;SDS011;42609;52.700;6.236;2023-04-25T05:41:10;10.73;;;1.73;;
56726;SDS011;42609;52.700;6.236;2023-04-25T05:43:36;13.88;;;2.13;;
56726;SDS011;42609;52.700;6.236;2023-04-25T05:46:02;7.20;;;1.60;;
56726;SDS011;42609;52.700;6.236;2023-04-25T05:48:27;12.07;;;2.00;;
56726;SDS011;42609;52.700;6.236;2023-04-25T05:50:53;8.20;;;1.83;;
56726;SDS011;42609;52.700;6.236;2023-04-25T05:53:19;12.45;;;2.05;;
56726;SDS011;42609;52.700;6.236;2023-04-25T05:55:46;7.47;;;1.83;;
56726;SDS011;42609;52.700;6.236;2023-04-25T05:58:11;9.60;;;1.70;;
56726;SDS011;42609;52.700;6.236;2023-04-25T06:00:37;9.45;;;2.25;;
56726;SDS011;42609;52.700;6.236;2023-04-25T06:03:06;8.43;;;1.98;;
56726;SDS011;42609;52.700;6.236;2023-04-25T06:05:34;6.75;;;1.50;;
56726;SDS011;42609;52.700;6.236;2023-04-25T06:08:00;8.23;;;1.65;;
56726;SDS011;42609;52.700;6.236;2023-04-25T06:10:26;9.23;;;1.85;;
56726;SDS011;42609;52.700;6.236;2023-04-25T06:12:51;8.43;;;1.75;;
56726;SDS011;42609;52.700;6.236;2023-04-25T06:15:17;8.77;;;1.60;;
56726;SDS011;42609;52.700;6.236;2023-04-25T06:17:43;7.28;;;2.00;;
56726;SDS011;42609;52.700;6.236;2023-04-25T06:20:08;9.05;;;1.70;;
56726;SDS011;42609;52.700;6.236;2023-04-25T06:22:34;10.52;;;1.80;;
56726;SDS011;42609;52.700;6.236;2023-04-25T06:25:00;6.80;;;1.60;;
56726;SDS011;42609;52.700;6.236;2023-04-25T06:27:27;11.02;;;2.05;;
56726;SDS011;42609;52.700;6.236;2023-04-25T06:29:53;6.82;;;1.52;;
56726;SDS011;42609;52.700;6.236;2023-04-25T06:32:18;7.80;;;1.60;;
56726;SDS011;42609;52.700;6.236;2023-04-25T06:34:44;6.20;;;1.77;;
56726;SDS011;42609;52.700;6.236;2023-04-25T06:37:10;4.85;;;1.38;;
56726;SDS011;42609;52.700;6.236;2023-04-25T06:39:36;7.22;;;1.85;;
56726;SDS011;42609;52.700;6.236;2023-04-25T06:42:04;11.00;;;1.80;;
56726;SDS011;42609;52.700;6.236;2023-04-25T06:44:29;7.32;;;1.60;;
56726;SDS011;42609;52.700;6.236;2023-04-25T06:46:55;9.02;;;1.45;;
56726;SDS011;42609;52.700;6.236;2023-04-25T06:49:21;7.95;;;1.60;;
56726;SDS011;42609;52.700;6.236;2023-04-25T06:51:47;10.80;;;1.95;;
56726;SDS011;42609;52.700;6.236;2023-04-25T06:54:13;9.35;;;1.80;;
56726;SDS011;42609;52.700;6.236;2023-04-25T06:56:38;6.70;;;1.55;;
56726;SDS011;42609;52.700;6.236;2023-04-25T06:59:04;7.28;;;1.63;;
56726;SDS011;42609;52.700;6.236;2023-04-25T07:01:29;7.40;;;1.48;;
56726;SDS011;42609;52.700;6.236;2023-04-25T07:03:55;8.88;;;1.50;;
56726;SDS011;42609;52.700;6.236;2023-04-25T07:06:21;8.07;;;1.60;;
56726;SDS011;42609;52.700;6.236;2023-04-25T07:08:46;8.65;;;1.67;;
56726;SDS011;42609;52.700;6.236;2023-04-25T07:11:12;7.32;;;1.67;;
56726;SDS011;42609;52.700;6.236;2023-04-25T07:13:37;9.20;;;1.60;;
56726;SDS011;42609;52.700;6.236;2023-04-25T07:16:03;8.65;;;1.70;;
56726;SDS011;42609;52.700;6.236;2023-04-25T07:18:29;7.75;;;1.90;;
56726;SDS011;42609;52.700;6.236;2023-04-25T07:20:55;9.48;;;2.05;;
56726;SDS011;42609;52.700;6.236;2023-04-25T07:23:21;8.85;;;2.30;;
56726;SDS011;42609;52.700;6.236;2023-04-25T07:25:46;10.45;;;2.15;;
56726;SDS011;42609;52.700;6.236;2023-04-25T07:28:12;7.28;;;2.38;;
56726;SDS011;42609;52.700;6.236;2023-04-25T07:30:37;12.00;;;2.60;;
56726;SDS011;42609;52.700;6.236;2023-04-25T07:33:03;11.93;;;2.40;;
56726;SDS011;42609;52.700;6.236;2023-04-25T07:35:29;9.50;;;2.28;;
56726;SDS011;42609;52.700;6.236;2023-04-25T07:37:54;10.00;;;2.08;;
56726;SDS011;42609;52.700;6.236;2023-04-25T07:40:20;8.82;;;1.85;;
56726;SDS011;42609;52.700;6.236;2023-04-25T07:42:46;9.75;;;1.58;;
56726;SDS011;42609;52.700;6.236;2023-04-25T07:45:12;9.13;;;1.65;;
56726;SDS011;42609;52.700;6.236;2023-04-25T07:47:37;9.15;;;1.48;;
56726;SDS011;42609;52.700;6.236;2023-04-25T07:50:03;14.82;;;2.08;;
56726;SDS011;42609;52.700;6.236;2023-04-25T07:52:29;7.65;;;1.50;;
56726;SDS011;42609;52.700;6.236;2023-04-25T07:54:55;7.75;;;1.65;;
56726;SDS011;42609;52.700;6.236;2023-04-25T07:57:22;8.25;;;1.40;;
56726;SDS011;42609;52.700;6.236;2023-04-25T07:59:49;7.88;;;1.42;;
56726;SDS011;42609;52.700;6.236;2023-04-25T08:02:14;6.00;;;1.50;;
56726;SDS011;42609;52.700;6.236;2023-04-25T08:04:40;7.53;;;1.73;;
56726;SDS011;42609;52.700;6.236;2023-04-25T08:07:06;11.00;;;1.48;;
56726;SDS011;42609;52.700;6.236;2023-04-25T08:09:31;7.40;;;1.42;;
56726;SDS011;42609;52.700;6.236;2023-04-25T08:12:00;7.68;;;1.52;;
56726;SDS011;42609;52.700;6.236;2023-04-25T08:14:27;6.03;;;1.13;;
56726;SDS011;42609;52.700;6.236;2023-04-25T08:16:54;6.03;;;1.25;;
56726;SDS011;42609;52.700;6.236;2023-04-25T08:19:19;5.05;;;1.08;;
56726;SDS011;42609;52.700;6.236;2023-04-25T08:21:45;5.60;;;0.93;;
56726;SDS011;42609;52.700;6.236;2023-04-25T08:24:10;6.55;;;1.00;;
56726;SDS011;42609;52.700;6.236;2023-04-25T08:26:36;7.28;;;0.85;;
56726;SDS011;42609;52.700;6.236;2023-04-25T08:29:03;3.60;;;0.82;;
56726;SDS011;42609;52.700;6.236;2023-04-25T08:31:29;4.43;;;1.00;;
56726;SDS011;42609;52.700;6.236;2023-04-25T08:33:55;9.80;;;1.10;;
56726;SDS011;42609;52.700;6.236;2023-04-25T08:36:20;8.98;;;1.65;;
56726;SDS011;42609;52.700;6.236;2023-04-25T08:38:46;4.10;;;1.02;;
56726;SDS011;42609;52.700;6.236;2023-04-25T08:41:12;6.38;;;1.10;;
56726;SDS011;42609;52.700;6.236;2023-04-25T08:43:39;5.30;;;1.20;;
56726;SDS011;42609;52.700;6.236;2023-04-25T08:46:07;6.88;;;1.30;;
56726;SDS011;42609;52.700;6.236;2023-04-25T08:48:33;5.13;;;1.20;;
56726;SDS011;42609;52.700;6.236;2023-04-25T08:51:00;5.30;;;1.00;;
56726;SDS011;42609;52.700;6.236;2023-04-25T08:53:28;9.57;;;1.60;;
56726;SDS011;42609;52.700;6.236;2023-04-25T08:55:56;5.10;;;1.00;;
56726;SDS011;42609;52.700;6.236;2023-04-25T08:58:23;5.00;;;1.50;;
56726;SDS011;42609;52.700;6.236;2023-04-25T09:00:49;10.68;;;1.45;;
56726;SDS011;42609;52.700;6.236;2023-04-25T09:03:19;5.13;;;1.35;;
56726;SDS011;42609;52.700;6.236;2023-04-25T09:05:44;8.85;;;1.55;;
56726;SDS011;42609;52.700;6.236;2023-04-25T09:08:10;6.85;;;1.70;;
56726;SDS011;42609;52.700;6.236;2023-04-25T09:10:36;4.78;;;1.25;;
56726;SDS011;42609;52.700;6.236;2023-04-25T09:15:31;7.45;;;1.30;;
56726;SDS011;42609;52.700;6.236;2023-04-25T09:17:57;6.68;;;1.45;;
56726;SDS011;42609;52.700;6.236;2023-04-25T09:20:24;9.55;;;1.73;;
56726;SDS011;42609;52.700;6.236;2023-04-25T09:23:11;8.45;;;1.42;;
56726;SDS011;42609;52.700;6.236;2023-04-25T09:25:36;6.93;;;1.52;;
56726;SDS011;42609;52.700;6.236;2023-04-25T09:28:04;10.55;;;1.60;;
56726;SDS011;42609;52.700;6.236;2023-04-25T09:30:31;9.40;;;1.30;;
56726;SDS011;42609;52.700;6.236;2023-04-25T09:33:03;5.75;;;1.40;;
56726;SDS011;42609;52.700;6.236;2023-04-25T09:35:34;7.82;;;1.48;;
56726;SDS011;42609;52.700;6.236;2023-04-25T09:38:11;8.73;;;1.60;;
56726;SDS011;42609;52.700;6.236;2023-04-25T09:43:18;5.50;;;1.48;;
56726;SDS011;42609;52.700;6.236;2023-04-25T09:45:45;8.23;;;1.60;;
56726;SDS011;42609;52.700;6.236;2023-04-25T09:48:15;6.50;;;1.10;;
56726;SDS011;42609;52.700;6.236;2023-04-25T09:51:04;6.50;;;1.38;;
56726;SDS011;42609;52.700;6.236;2023-04-25T09:53:31;9.00;;;1.45;;
56726;SDS011;42609;52.700;6.236;2023-04-25T09:56:00;7.25;;;1.20;;
56726;SDS011;42609;52.700;6.236;2023-04-25T09:58:30;6.85;;;1.30;;
56726;SDS011;42609;52.700;6.236;2023-04-25T10:00:58;7.55;;;1.40;;
56726;SDS011;42609;52.700;6.236;2023-04-25T10:03:27;5.68;;;1.13;;
56726;SDS011;42609;52.700;6.236;2023-04-25T10:05:56;6.40;;;1.48;;
56726;SDS011;42609;52.700;6.236;2023-04-25T10:08:24;6.95;;;1.10;;
56726;SDS011;42609;52.700;6.236;2023-04-25T10:10:53;6.20;;;1.50;;
56726;SDS011;42609;52.700;6.236;2023-04-25T10:13:18;5.30;;;1.20;;
56726;SDS011;42609;52.700;6.236;2023-04-25T10:15:44;5.97;;;1.20;;
56726;SDS011;42609;52.700;6.236;2023-04-25T10:18:11;4.88;;;1.27;;
56726;SDS011;42609;52.700;6.236;2023-04-25T10:20:37;6.07;;;1.45;;
56726;SDS011;42609;52.700;6.236;2023-04-25T10:23:08;7.35;;;1.50;;
56726;SDS011;42609;52.700;6.236;2023-04-25T10:25:38;7.63;;;1.48;;
56726;SDS011;42609;52.700;6.236;2023-04-25T10:28:05;7.82;;;1.50;;
56726;SDS011;42609;52.700;6.236;2023-04-25T10:30:30;6.10;;;1.35;;
56726;SDS011;42609;52.700;6.236;2023-04-25T10:32:56;7.10;;;1.38;;
56726;SDS011;42609;52.700;6.236;2023-04-25T10:35:25;11.02;;;1.98;;
56726;SDS011;42609;52.700;6.236;2023-04-25T10:37:56;9.45;;;1.50;;
56726;SDS011;42609;52.700;6.236;2023-04-25T10:40:30;5.68;;;1.25;;
56726;SDS011;42609;52.700;6.236;2023-04-25T10:46:03;5.45;;;1.25;;
56726;SDS011;42609;52.700;6.236;2023-04-25T10:48:44;6.70;;;1.88;;
56726;SDS011;42609;52.700;6.236;2023-04-25T10:51:16;5.45;;;1.30;;
56726;SDS011;42609;52.700;6.236;2023-04-25T10:54:03;7.72;;;1.33;;
56726;SDS011;42609;52.700;6.236;2023-04-25T10:56:30;7.20;;;2.03;;
56726;SDS011;42609;52.700;6.236;2023-04-25T10:59:13;10.13;;;1.65;;
56726;SDS011;42609;52.700;6.236;2023-04-25T11:01:43;7.57;;;1.77;;
56726;SDS011;42609;52.700;6.236;2023-04-25T11:04:32;7.20;;;1.38;;
56726;SDS011;42609;52.700;6.236;2023-04-25T11:12:06;6.68;;;1.20;;
56726;SDS011;42609;52.700;6.236;2023-04-25T11:14:33;4.97;;;1.60;;
56726;SDS011;42609;52.700;6.236;2023-04-25T11:16:59;6.40;;;1.30;;
56726;SDS011;42609;52.700;6.236;2023-04-25T11:19:27;9.25;;;1.60;;
56726;SDS011;42609;52.700;6.236;2023-04-25T11:21:57;7.53;;;1.30;;
56726;SDS011;42609;52.700;6.236;2023-04-25T11:24:31;9.52;;;1.50;;
56726;SDS011;42609;52.700;6.236;2023-04-25T11:26:58;7.70;;;1.55;;
56726;SDS011;42609;52.700;6.236;2023-04-25T11:29:30;4.15;;;1.13;;
56726;SDS011;42609;52.700;6.236;2023-04-25T11:31:59;5.78;;;1.42;;
56726;SDS011;42609;52.700;6.236;2023-04-25T11:34:26;5.38;;;1.30;;
56726;SDS011;42609;52.700;6.236;2023-04-25T11:36:55;5.40;;;1.17;;
56726;SDS011;42609;52.700;6.236;2023-04-25T11:39:21;6.55;;;1.38;;
56726;SDS011;42609;52.700;6.236;2023-04-25T11:41:49;6.43;;;1.45;;
56726;SDS011;42609;52.700;6.236;2023-04-25T11:44:16;6.70;;;1.35;;
56726;SDS011;42609;52.700;6.236;2023-04-25T11:46:42;6.35;;;1.17;;
56726;SDS011;42609;52.700;6.236;2023-04-25T11:49:08;8.02;;;1.33;;
56726;SDS011;42609;52.700;6.236;2023-04-25T11:51:40;6.97;;;1.50;;
56726;SDS011;42609;52.700;6.236;2023-04-25T11:54:08;5.97;;;1.10;;
56726;SDS011;42609;52.700;6.236;2023-04-25T11:56:34;7.40;;;1.40;;
56726;SDS011;42609;52.700;6.236;2023-04-25T11:59:01;8.48;;;1.85;;
56726;SDS011;42609;52.700;6.236;2023-04-25T12:01:34;6.70;;;1.50;;
56726;SDS011;42609;52.700;6.236;2023-04-25T12:04:15;5.93;;;1.35;;
56726;SDS011;42609;52.700;6.236;2023-04-25T12:06:45;6.82;;;1.33;;
56726;SDS011;42609;52.700;6.236;2023-04-25T12:09:16;7.95;;;1.42;;
56726;SDS011;42609;52.700;6.236;2023-04-25T12:11:44;5.97;;;1.40;;
56726;SDS011;42609;52.700;6.236;2023-04-25T12:14:11;7.22;;;1.55;;
56726;SDS011;42609;52.700;6.236;2023-04-25T12:16:45;7.07;;;1.40;;
56726;SDS011;42609;52.700;6.236;2023-04-25T12:19:15;4.13;;;1.30;;
56726;SDS011;42609;52.700;6.236;2023-04-25T12:21:42;5.30;;;1.13;;
56726;SDS011;42609;52.700;6.236;2023-04-25T12:24:11;6.75;;;1.52;;
56726;SDS011;42609;52.700;6.236;2023-04-25T12:27:14;7.65;;;1.55;;
56726;SDS011;42609;52.700;6.236;2023-04-25T12:29:33;6.28;;;1.10;;
56726;SDS011;42609;52.700;6.236;2023-04-25T12:31:59;6.65;;;1.30;;
56726;SDS011;42609;52.700;6.236;2023-04-25T12:34:27;5.13;;;1.42;;
56726;SDS011;42609;52.700;6.236;2023-04-25T12:36:53;6.80;;;1.20;;
56726;SDS011;42609;52.700;6.236;2023-04-25T12:39:19;3.85;;;1.00;;
56726;SDS011;42609;52.700;6.236;2023-04-25T12:41:46;4.80;;;1.20;;
56726;SDS011;42609;52.700;6.236;2023-04-25T12:44:18;7.40;;;1.30;;
56726;SDS011;42609;52.700;6.236;2023-04-25T12:46:44;5.88;;;1.20;;
56726;SDS011;42609;52.700;6.236;2023-04-25T12:49:10;4.05;;;0.93;;
56726;SDS011;42609;52.700;6.236;2023-04-25T12:51:36;7.88;;;1.27;;
56726;SDS011;42609;52.700;6.236;2023-04-25T12:54:03;12.20;;;1.40;;
56726;SDS011;42609;52.700;6.236;2023-04-25T12:56:29;8.18;;;1.40;;
56726;SDS011;42609;52.700;6.236;2023-04-25T12:58:56;6.45;;;1.50;;
56726;SDS011;42609;52.700;6.236;2023-04-25T13:01:22;5.47;;;1.27;;
56726;SDS011;42609;52.700;6.236;2023-04-25T13:03:48;5.97;;;1.48;;
56726;SDS011;42609;52.700;6.236;2023-04-25T13:06:14;7.80;;;2.55;;
56726;SDS011;42609;52.700;6.236;2023-04-25T13:08:40;7.95;;;2.20;;
56726;SDS011;42609;52.700;6.236;2023-04-25T13:11:06;8.35;;;2.08;;
56726;SDS011;42609;52.700;6.236;2023-04-25T13:13:32;5.82;;;1.60;;
56726;SDS011;42609;52.700;6.236;2023-04-25T13:16:00;5.88;;;1.10;;
56726;SDS011;42609;52.700;6.236;2023-04-25T13:18:27;5.03;;;1.20;;
56726;SDS011;42609;52.700;6.236;2023-04-25T13:20:53;6.70;;;1.08;;
56726;SDS011;42609;52.700;6.236;2023-04-25T13:23:19;3.25;;;0.82;;
56726;SDS011;42609;52.700;6.236;2023-04-25T13:25:45;3.50;;;0.98;;
56726;SDS011;42609;52.700;6.236;2023-04-25T13:28:11;5.35;;;1.38;;
56726;SDS011;42609;52.700;6.236;2023-04-25T13:30:37;6.22;;;1.10;;
56726;SDS011;42609;52.700;6.236;2023-04-25T13:33:03;6.00;;;1.50;;
56726;SDS011;42609;52.700;6.236;2023-04-25T13:35:29;6.90;;;1.67;;
56726;SDS011;42609;52.700;6.236;2023-04-25T13:37:55;7.93;;;1.10;;
56726;SDS011;42609;52.700;6.236;2023-04-25T13:40:21;9.77;;;1.50;;
56726;SDS011;42609;52.700;6.236;2023-04-25T13:42:47;7.20;;;1.90;;
56726;SDS011;42609;52.700;6.236;2023-04-25T13:45:13;5.80;;;1.13;;
56726;SDS011;42609;52.700;6.236;2023-04-25T13:47:39;8.32;;;1.38;;
56726;SDS011;42609;52.700;6.236;2023-04-25T13:50:04;7.65;;;1.20;;
56726;SDS011;42609;52.700;6.236;2023-04-25T13:52:31;3.58;;;0.90;;
56726;SDS011;42609;52.700;6.236;2023-04-25T13:54:57;5.55;;;1.40;;
56726;SDS011;42609;52.700;6.236;2023-04-25T13:57:23;6.93;;;1.27;;
56726;SDS011;42609;52.700;6.236;2023-04-25T13:59:50;5.55;;;1.40;;
56726;SDS011;42609;52.700;6.236;2023-04-25T14:02:16;4.60;;;1.15;;
56726;SDS011;42609;52.700;6.236;2023-04-25T14:04:41;4.97;;;0.98;;
56726;SDS011;42609;52.700;6.236;2023-04-25T14:07:07;6.03;;;1.55;;
56726;SDS011;42609;52.700;6.236;2023-04-25T14:09:33;4.35;;;1.17;;
56726;SDS011;42609;52.700;6.236;2023-04-25T14:11:59;6.03;;;1.15;;
56726;SDS011;42609;52.700;6.236;2023-04-25T14:14:25;4.97;;;0.93;;
56726;SDS011;42609;52.700;6.236;2023-04-25T14:16:51;4.43;;;1.20;;
56726;SDS011;42609;52.700;6.236;2023-04-25T14:19:19;5.97;;;1.52;;
56726;SDS011;42609;52.700;6.236;2023-04-25T14:21:46;3.13;;;1.00;;
56726;SDS011;42609;52.700;6.236;2023-04-25T14:24:11;4.22;;;1.17;;
56726;SDS011;42609;52.700;6.236;2023-04-25T14:26:38;3.08;;;0.90;;
56726;SDS011;42609;52.700;6.236;2023-04-25T14:29:04;3.22;;;1.02;;
56726;SDS011;42609;52.700;6.236;2023-04-25T14:31:31;3.10;;;0.80;;
56726;SDS011;42609;52.700;6.236;2023-04-25T14:33:58;4.53;;;0.95;;
56726;SDS011;42609;52.700;6.236;2023-04-25T14:36:23;5.63;;;1.02;;
56726;SDS011;42609;52.700;6.236;2023-04-25T14:38:49;4.40;;;0.93;;
56726;SDS011;42609;52.700;6.236;2023-04-25T14:41:15;4.75;;;1.02;;
56726;SDS011;42609;52.700;6.236;2023-04-25T14:43:40;6.88;;;1.10;;
56726;SDS011;42609;52.700;6.236;2023-04-25T14:46:06;6.22;;;1.50;;
56726;SDS011;42609;52.700;6.236;2023-04-25T14:48:32;7.13;;;1.58;;
56726;SDS011;42609;52.700;6.236;2023-04-25T14:50:59;4.82;;;1.15;;
56726;SDS011;42609;52.700;6.236;2023-04-25T14:53:25;6.95;;;1.30;;
56726;SDS011;42609;52.700;6.236;2023-04-25T14:55:51;7.45;;;1.63;;